sensor_id;sensor_type;location;lat;lon;timestamp;P1;durP1;ratioP1;P2;durP2;ratioP2
15198;SDS011;7700;48.654;9.070;2023-08-30T00:01:49;6.03;;;5.53;;
15198;SDS011;7700;48.654;9.070;2023-08-30T00:04:15;6.22;;;5.82;;
15198;SDS011;7700;48.654;9.070;2023-08-30T00:06:41;6.60;;;6.20;;
15198;SDS011;7700;48.654;9.070;2023-08-30T00:09:07;6.15;;;5.75;;
15198;SDS011;7700;48.654;9.070;2023-08-30T00:11:33;6.32;;;5.93;;
15198;SDS011;7700;48.654;9.070;2023-08-30T00:14:03;6.47;;;6.07;;
15198;SDS011;7700;48.654;9.070;2023-08-30T00:16:33;6.93;;;6.30;;
15198;SDS011;7700;48.654;9.070;2023-08-30T00:18:59;5.82;;;5.53;;
15198;SDS011;7700;48.654;9.070;2023-08-30T00:21:25;7.70;;;7.05;;
15198;SDS011;7700;48.654;9.070;2023-08-30T00:23:52;7.57;;;6.97;;
15198;SDS011;7700;48.654;9.070;2023-08-30T00:26:18;8.48;;;7.88;;
15198;SDS011;7700;48.654;9.070;2023-08-30T00:28:44;7.32;;;6.85;;
15198;SDS011;7700;48.654;9.070;2023-08-30T00:31:10;7.63;;;7.03;;
15198;SDS011;7700;48.654;9.070;2023-08-30T00:33:36;7.80;;;7.10;;
15198;SDS011;7700;48.654;9.070;2023-08-30T00:36:02;8.40;;;7.70;;
15198;SDS011;7700;48.654;9.070;2023-08-30T00:38:28;9.55;;;8.95;;
15198;SDS011;7700;48.654;9.070;2023-08-30T00:40:55;8.15;;;7.55;;
15198;SDS011;7700;48.654;9.070;2023-08-30T00:43:20;7.47;;;6.88;;
15198;SDS011;7700;48.654;9.070;2023-08-30T00:45:47;8.80;;;8.20;;
15198;SDS011;7700;48.654;9.070;2023-08-30T00:48:13;8.75;;;8.15;;
15198;SDS011;7700;48.654;9.070;2023-08-30T00:50:41;9.75;;;9.15;;
15198;SDS011;7700;48.654;9.070;2023-08-30T00:53:07;9.85;;;8.80;;
15198;SDS011;7700;48.654;9.070;2023-08-30T00:55:34;9.20;;;8.60;;
15198;SDS011;7700;48.654;9.070;2023-08-30T00:58:00;9.05;;;8.38;;
15198;SDS011;7700;48.654;9.070;2023-08-30T01:00:30;8.73;;;8.13;;
15198;SDS011;7700;48.654;9.070;2023-08-30T01:02:56;8.20;;;7.50;;
15198;SDS011;7700;48.654;9.070;2023-08-30T01:05:22;8.00;;;7.40;;
15198;SDS011;7700;48.654;9.070;2023-08-30T01:07:49;8.45;;;7.85;;
15198;SDS011;7700;48.654;9.070;2023-08-30T01:10:15;8.95;;;8.25;;
15198;SDS011;7700;48.654;9.070;2023-08-30T01:12:48;9.05;;;8.43;;
15198;SDS011;7700;48.654;9.070;2023-08-30T01:15:15;7.72;;;7.22;;
15198;SDS011;7700;48.654;9.070;2023-08-30T01:17:44;8.50;;;7.90;;
15198;SDS011;7700;48.654;9.070;2023-08-30T01:20:10;9.38;;;8.70;;
15198;SDS011;7700;48.654;9.070;2023-08-30T01:22:43;9.48;;;8.80;;
15198;SDS011;7700;48.654;9.070;2023-08-30T01:25:14;10.32;;;9.52;;
15198;SDS011;7700;48.654;9.070;2023-08-30T01:27:42;10.85;;;10.05;;
15198;SDS011;7700;48.654;9.070;2023-08-30T01:30:09;10.10;;;9.32;;
15198;SDS011;7700;48.654;9.070;2023-08-30T01:32:36;10.35;;;9.65;;
15198;SDS011;7700;48.654;9.070;2023-08-30T01:35:03;9.40;;;8.68;;
15198;SDS011;7700;48.654;9.070;2023-08-30T01:37:30;10.70;;;9.95;;
15198;SDS011;7700;48.654;9.070;2023-08-30T01:39:56;9.40;;;8.60;;
15198;SDS011;7700;48.654;9.070;2023-08-30T01:42:23;8.70;;;8.00;;
15198;SDS011;7700;48.654;9.070;2023-08-30T01:44:49;7.03;;;6.57;;
15198;SDS011;7700;48.654;9.070;2023-08-30T01:47:19;17.13;;;6.03;;
15198;SDS011;7700;48.654;9.070;2023-08-30T01:49:45;6.20;;;5.80;;
15198;SDS011;7700;48.654;9.070;2023-08-30T01:52:11;7.00;;;6.55;;
15198;SDS011;7700;48.654;9.070;2023-08-30T01:54:38;7.88;;;7.38;;
15198;SDS011;7700;48.654;9.070;2023-08-30T01:57:04;7.78;;;7.18;;
15198;SDS011;7700;48.654;9.070;2023-08-30T01:59:30;7.05;;;6.55;;
15198;SDS011;7700;48.654;9.070;2023-08-30T02:01:56;7.72;;;7.15;;
15198;SDS011;7700;48.654;9.070;2023-08-30T02:04:22;8.82;;;8.23;;
15198;SDS011;7700;48.654;9.070;2023-08-30T02:06:50;9.52;;;8.85;;
15198;SDS011;7700;48.654;9.070;2023-08-30T02:09:35;11.30;;;10.45;;
15198;SDS011;7700;48.654;9.070;2023-08-30T02:12:04;10.90;;;9.80;;
15198;SDS011;7700;48.654;9.070;2023-08-30T02:14:33;11.80;;;10.85;;
15198;SDS011;7700;48.654;9.070;2023-08-30T02:16:59;11.85;;;10.82;;
15198;SDS011;7700;48.654;9.070;2023-08-30T02:19:25;12.70;;;11.73;;
15198;SDS011;7700;48.654;9.070;2023-08-30T02:21:51;11.25;;;10.45;;
15198;SDS011;7700;48.654;9.070;2023-08-30T02:24:17;12.52;;;11.55;;
15198;SDS011;7700;48.654;9.070;2023-08-30T02:26:43;10.60;;;9.90;;
15198;SDS011;7700;48.654;9.070;2023-08-30T02:29:09;8.40;;;7.68;;
15198;SDS011;7700;48.654;9.070;2023-08-30T02:31:35;6.55;;;6.15;;
15198;SDS011;7700;48.654;9.070;2023-08-30T02:34:01;33.88;;;6.88;;
15198;SDS011;7700;48.654;9.070;2023-08-30T02:36:27;18.38;;;6.50;;
15198;SDS011;7700;48.654;9.070;2023-08-30T02:38:53;7.78;;;5.45;;
15198;SDS011;7700;48.654;9.070;2023-08-30T02:41:19;5.50;;;5.10;;
15198;SDS011;7700;48.654;9.070;2023-08-30T02:43:45;7.93;;;7.43;;
15198;SDS011;7700;48.654;9.070;2023-08-30T02:46:11;9.18;;;8.57;;
15198;SDS011;7700;48.654;9.070;2023-08-30T02:48:37;10.65;;;9.95;;
15198;SDS011;7700;48.654;9.070;2023-08-30T02:51:03;9.55;;;8.85;;
15198;SDS011;7700;48.654;9.070;2023-08-30T02:53:29;10.65;;;9.85;;
15198;SDS011;7700;48.654;9.070;2023-08-30T02:55:55;10.73;;;9.82;;
15198;SDS011;7700;48.654;9.070;2023-08-30T02:58:21;11.05;;;10.05;;
15198;SDS011;7700;48.654;9.070;2023-08-30T03:00:48;11.00;;;10.02;;
15198;SDS011;7700;48.654;9.070;2023-08-30T03:03:14;10.90;;;10.10;;
15198;SDS011;7700;48.654;9.070;2023-08-30T03:05:40;12.05;;;10.93;;
15198;SDS011;7700;48.654;9.070;2023-08-30T03:08:06;11.77;;;10.88;;
15198;SDS011;7700;48.654;9.070;2023-08-30T03:10:32;11.32;;;10.38;;
15198;SDS011;7700;48.654;9.070;2023-08-30T03:12:58;12.02;;;11.13;;
15198;SDS011;7700;48.654;9.070;2023-08-30T03:15:24;11.65;;;10.63;;
15198;SDS011;7700;48.654;9.070;2023-08-30T03:17:50;10.90;;;10.10;;
15198;SDS011;7700;48.654;9.070;2023-08-30T03:20:16;11.25;;;10.35;;
15198;SDS011;7700;48.654;9.070;2023-08-30T03:22:42;8.38;;;7.68;;
15198;SDS011;7700;48.654;9.070;2023-08-30T03:25:08;8.25;;;7.65;;
15198;SDS011;7700;48.654;9.070;2023-08-30T03:27:34;7.95;;;7.45;;
15198;SDS011;7700;48.654;9.070;2023-08-30T03:30:01;6.93;;;6.45;;
15198;SDS011;7700;48.654;9.070;2023-08-30T03:32:27;7.10;;;6.60;;
15198;SDS011;7700;48.654;9.070;2023-08-30T03:34:53;6.38;;;5.97;;
15198;SDS011;7700;48.654;9.070;2023-08-30T03:37:19;5.40;;;5.10;;
15198;SDS011;7700;48.654;9.070;2023-08-30T03:39:45;6.13;;;5.68;;
15198;SDS011;7700;48.654;9.070;2023-08-30T03:42:11;6.75;;;6.28;;
15198;SDS011;7700;48.654;9.070;2023-08-30T03:44:37;9.02;;;8.30;;
15198;SDS011;7700;48.654;9.070;2023-08-30T03:47:04;10.68;;;4.97;;
15198;SDS011;7700;48.654;9.070;2023-08-30T03:49:30;15.35;;;4.38;;
15198;SDS011;7700;48.654;9.070;2023-08-30T03:51:56;7.70;;;4.82;;
15198;SDS011;7700;48.654;9.070;2023-08-30T03:54:22;4.38;;;4.13;;
15198;SDS011;7700;48.654;9.070;2023-08-30T03:56:48;4.50;;;4.20;;
15198;SDS011;7700;48.654;9.070;2023-08-30T03:59:14;11.52;;;6.38;;
15198;SDS011;7700;48.654;9.070;2023-08-30T04:01:40;7.35;;;6.63;;
15198;SDS011;7700;48.654;9.070;2023-08-30T04:04:06;6.97;;;6.47;;
15198;SDS011;7700;48.654;9.070;2023-08-30T04:06:32;7.45;;;6.95;;
15198;SDS011;7700;48.654;9.070;2023-08-30T04:08:58;6.95;;;6.45;;
15198;SDS011;7700;48.654;9.070;2023-08-30T04:11:24;7.03;;;6.53;;
15198;SDS011;7700;48.654;9.070;2023-08-30T04:13:50;10.68;;;5.63;;
15198;SDS011;7700;48.654;9.070;2023-08-30T04:16:17;6.72;;;6.20;;
15198;SDS011;7700;48.654;9.070;2023-08-30T04:18:43;5.93;;;5.53;;
15198;SDS011;7700;48.654;9.070;2023-08-30T04:21:09;7.35;;;6.88;;
15198;SDS011;7700;48.654;9.070;2023-08-30T04:23:35;8.75;;;8.05;;
15198;SDS011;7700;48.654;9.070;2023-08-30T04:26:01;8.45;;;7.85;;
15198;SDS011;7700;48.654;9.070;2023-08-30T04:28:27;9.52;;;8.82;;
15198;SDS011;7700;48.654;9.070;2023-08-30T04:30:53;9.50;;;8.82;;
15198;SDS011;7700;48.654;9.070;2023-08-30T04:33:19;9.20;;;8.48;;
15198;SDS011;7700;48.654;9.070;2023-08-30T04:35:49;8.23;;;7.63;;
15198;SDS011;7700;48.654;9.070;2023-08-30T04:38:15;7.80;;;7.20;;
15198;SDS011;7700;48.654;9.070;2023-08-30T04:40:41;7.40;;;6.82;;
15198;SDS011;7700;48.654;9.070;2023-08-30T04:43:07;7.45;;;6.95;;
15198;SDS011;7700;48.654;9.070;2023-08-30T04:45:36;7.55;;;7.05;;
15198;SDS011;7700;48.654;9.070;2023-08-30T04:48:02;6.90;;;6.43;;
15198;SDS011;7700;48.654;9.070;2023-08-30T04:50:28;5.93;;;5.53;;
15198;SDS011;7700;48.654;9.070;2023-08-30T04:52:55;5.97;;;5.57;;
15198;SDS011;7700;48.654;9.070;2023-08-30T04:55:23;6.60;;;6.10;;
15198;SDS011;7700;48.654;9.070;2023-08-30T04:57:49;6.93;;;5.78;;
15198;SDS011;7700;48.654;9.070;2023-08-30T05:00:15;5.90;;;5.50;;
15198;SDS011;7700;48.654;9.070;2023-08-30T05:02:41;5.90;;;5.50;;
15198;SDS011;7700;48.654;9.070;2023-08-30T05:05:08;6.70;;;6.20;;
15198;SDS011;7700;48.654;9.070;2023-08-30T05:07:34;7.13;;;6.53;;
15198;SDS011;7700;48.654;9.070;2023-08-30T05:10:00;6.30;;;5.72;;
15198;SDS011;7700;48.654;9.070;2023-08-30T05:12:27;6.32;;;5.93;;
15198;SDS011;7700;48.654;9.070;2023-08-30T05:14:53;6.10;;;5.70;;
15198;SDS011;7700;48.654;9.070;2023-08-30T05:17:19;6.73;;;6.23;;
15198;SDS011;7700;48.654;9.070;2023-08-30T05:19:45;7.10;;;6.60;;
15198;SDS011;7700;48.654;9.070;2023-08-30T05:22:11;11.75;;;6.57;;
15198;SDS011;7700;48.654;9.070;2023-08-30T05:24:37;6.50;;;6.10;;
15198;SDS011;7700;48.654;9.070;2023-08-30T05:27:03;6.20;;;5.70;;
15198;SDS011;7700;48.654;9.070;2023-08-30T05:29:29;6.32;;;5.93;;
15198;SDS011;7700;48.654;9.070;2023-08-30T05:31:55;6.32;;;5.93;;
15198;SDS011;7700;48.654;9.070;2023-08-30T05:34:21;7.50;;;6.93;;
15198;SDS011;7700;48.654;9.070;2023-08-30T05:36:48;8.32;;;7.63;;
15198;SDS011;7700;48.654;9.070;2023-08-30T05:39:14;8.80;;;8.00;;
15198;SDS011;7700;48.654;9.070;2023-08-30T05:41:40;8.45;;;7.75;;
15198;SDS011;7700;48.654;9.070;2023-08-30T05:44:06;7.60;;;6.95;;
15198;SDS011;7700;48.654;9.070;2023-08-30T05:46:33;8.65;;;7.85;;
15198;SDS011;7700;48.654;9.070;2023-08-30T05:48:59;9.15;;;8.50;;
15198;SDS011;7700;48.654;9.070;2023-08-30T05:51:27;9.10;;;8.35;;
15198;SDS011;7700;48.654;9.070;2023-08-30T05:53:53;9.68;;;8.88;;
15198;SDS011;7700;48.654;9.070;2023-08-30T05:56:19;9.48;;;8.68;;
15198;SDS011;7700;48.654;9.070;2023-08-30T05:58:45;10.15;;;9.35;;
15198;SDS011;7700;48.654;9.070;2023-08-30T06:01:11;9.68;;;8.98;;
15198;SDS011;7700;48.654;9.070;2023-08-30T06:03:37;9.45;;;8.65;;
15198;SDS011;7700;48.654;9.070;2023-08-30T06:06:03;9.30;;;8.57;;
15198;SDS011;7700;48.654;9.070;2023-08-30T06:08:29;10.48;;;9.55;;
15198;SDS011;7700;48.654;9.070;2023-08-30T06:10:55;9.65;;;8.95;;
15198;SDS011;7700;48.654;9.070;2023-08-30T06:13:22;10.30;;;9.43;;
15198;SDS011;7700;48.654;9.070;2023-08-30T06:15:51;11.18;;;10.27;;
15198;SDS011;7700;48.654;9.070;2023-08-30T06:18:18;10.38;;;9.55;;
15198;SDS011;7700;48.654;9.070;2023-08-30T06:20:44;10.65;;;9.75;;
15198;SDS011;7700;48.654;9.070;2023-08-30T06:23:11;10.80;;;9.90;;
15198;SDS011;7700;48.654;9.070;2023-08-30T06:25:37;10.95;;;10.15;;
15198;SDS011;7700;48.654;9.070;2023-08-30T06:28:03;9.93;;;9.13;;
15198;SDS011;7700;48.654;9.070;2023-08-30T06:30:29;9.60;;;8.65;;
15198;SDS011;7700;48.654;9.070;2023-08-30T06:32:55;9.98;;;9.20;;
15198;SDS011;7700;48.654;9.070;2023-08-30T06:35:21;9.98;;;9.18;;
15198;SDS011;7700;48.654;9.070;2023-08-30T06:37:47;11.10;;;10.25;;
15198;SDS011;7700;48.654;9.070;2023-08-30T06:40:13;11.13;;;10.13;;
15198;SDS011;7700;48.654;9.070;2023-08-30T06:42:39;10.52;;;9.68;;
15198;SDS011;7700;48.654;9.070;2023-08-30T06:45:06;10.63;;;9.82;;
15198;SDS011;7700;48.654;9.070;2023-08-30T06:47:32;10.20;;;9.50;;
15198;SDS011;7700;48.654;9.070;2023-08-30T06:49:58;9.77;;;8.98;;
15198;SDS011;7700;48.654;9.070;2023-08-30T06:52:24;11.43;;;9.65;;
15198;SDS011;7700;48.654;9.070;2023-08-30T06:54:51;10.40;;;9.50;;
15198;SDS011;7700;48.654;9.070;2023-08-30T06:57:16;10.63;;;9.73;;
15198;SDS011;7700;48.654;9.070;2023-08-30T06:59:42;11.32;;;10.32;;
15198;SDS011;7700;48.654;9.070;2023-08-30T07:02:08;9.82;;;9.02;;
15198;SDS011;7700;48.654;9.070;2023-08-30T07:04:34;10.50;;;9.60;;
15198;SDS011;7700;48.654;9.070;2023-08-30T07:07:00;11.10;;;10.20;;
15198;SDS011;7700;48.654;9.070;2023-08-30T07:09:26;9.68;;;8.98;;
15198;SDS011;7700;48.654;9.070;2023-08-30T07:11:57;10.43;;;9.52;;
15198;SDS011;7700;48.654;9.070;2023-08-30T07:14:23;10.05;;;9.25;;
15198;SDS011;7700;48.654;9.070;2023-08-30T07:16:49;10.30;;;9.43;;
15198;SDS011;7700;48.654;9.070;2023-08-30T07:19:15;9.30;;;8.52;;
15198;SDS011;7700;48.654;9.070;2023-08-30T07:21:42;9.68;;;8.98;;
15198;SDS011;7700;48.654;9.070;2023-08-30T07:24:08;9.15;;;8.35;;
15198;SDS011;7700;48.654;9.070;2023-08-30T07:26:34;8.98;;;8.25;;
15198;SDS011;7700;48.654;9.070;2023-08-30T07:29:00;9.48;;;8.77;;
15198;SDS011;7700;48.654;9.070;2023-08-30T07:31:26;9.05;;;8.35;;
15198;SDS011;7700;48.654;9.070;2023-08-30T07:33:52;8.38;;;7.78;;
15198;SDS011;7700;48.654;9.070;2023-08-30T07:36:18;9.02;;;8.32;;
15198;SDS011;7700;48.654;9.070;2023-08-30T07:38:44;8.45;;;7.85;;
15198;SDS011;7700;48.654;9.070;2023-08-30T07:41:10;9.18;;;8.35;;
15198;SDS011;7700;48.654;9.070;2023-08-30T07:43:36;8.32;;;7.72;;
15198;SDS011;7700;48.654;9.070;2023-08-30T07:46:02;7.90;;;7.30;;
15198;SDS011;7700;48.654;9.070;2023-08-30T07:48:29;8.80;;;8.00;;
15198;SDS011;7700;48.654;9.070;2023-08-30T07:50:55;9.07;;;8.27;;
15198;SDS011;7700;48.654;9.070;2023-08-30T07:53:21;9.35;;;8.55;;
15198;SDS011;7700;48.654;9.070;2023-08-30T07:55:50;9.38;;;8.63;;
15198;SDS011;7700;48.654;9.070;2023-08-30T07:58:16;7.85;;;7.18;;
15198;SDS011;7700;48.654;9.070;2023-08-30T08:00:43;7.85;;;7.25;;
15198;SDS011;7700;48.654;9.070;2023-08-30T08:03:09;8.27;;;7.57;;
15198;SDS011;7700;48.654;9.070;2023-08-30T08:05:37;7.60;;;7.10;;
15198;SDS011;7700;48.654;9.070;2023-08-30T08:08:03;8.48;;;7.88;;
15198;SDS011;7700;48.654;9.070;2023-08-30T08:10:33;7.80;;;7.20;;
15198;SDS011;7700;48.654;9.070;2023-08-30T08:12:59;8.25;;;7.45;;
15198;SDS011;7700;48.654;9.070;2023-08-30T08:15:25;7.43;;;6.93;;
15198;SDS011;7700;48.654;9.070;2023-08-30T08:17:51;7.95;;;7.15;;
15198;SDS011;7700;48.654;9.070;2023-08-30T08:20:16;7.68;;;7.03;;
15198;SDS011;7700;48.654;9.070;2023-08-30T08:22:43;7.68;;;7.18;;
15198;SDS011;7700;48.654;9.070;2023-08-30T08:25:09;7.82;;;6.68;;
15198;SDS011;7700;48.654;9.070;2023-08-30T08:27:36;8.10;;;7.50;;
15198;SDS011;7700;48.654;9.070;2023-08-30T08:30:02;7.35;;;6.75;;
15198;SDS011;7700;48.654;9.070;2023-08-30T08:32:29;7.13;;;6.50;;
15198;SDS011;7700;48.654;9.070;2023-08-30T08:34:55;6.55;;;5.93;;
15198;SDS011;7700;48.654;9.070;2023-08-30T08:37:21;6.15;;;5.65;;
15198;SDS011;7700;48.654;9.070;2023-08-30T08:39:47;6.95;;;6.35;;
15198;SDS011;7700;48.654;9.070;2023-08-30T08:42:17;7.18;;;6.68;;
15198;SDS011;7700;48.654;9.070;2023-08-30T08:44:44;8.20;;;6.40;;
15198;SDS011;7700;48.654;9.070;2023-08-30T08:47:15;6.65;;;6.05;;
15198;SDS011;7700;48.654;9.070;2023-08-30T08:49:42;7.18;;;6.57;;
15198;SDS011;7700;48.654;9.070;2023-08-30T08:52:08;6.88;;;6.22;;
15198;SDS011;7700;48.654;9.070;2023-08-30T08:54:35;6.60;;;6.10;;
15198;SDS011;7700;48.654;9.070;2023-08-30T08:57:01;6.03;;;5.55;;
15198;SDS011;7700;48.654;9.070;2023-08-30T08:59:27;6.32;;;5.82;;
15198;SDS011;7700;48.654;9.070;2023-08-30T09:01:54;6.32;;;5.80;;
15198;SDS011;7700;48.654;9.070;2023-08-30T09:04:21;6.13;;;5.68;;
15198;SDS011;7700;48.654;9.070;2023-08-30T09:06:47;6.25;;;5.68;;
15198;SDS011;7700;48.654;9.070;2023-08-30T09:09:13;6.35;;;5.85;;
15198;SDS011;7700;48.654;9.070;2023-08-30T09:11:39;5.78;;;5.32;;
15198;SDS011;7700;48.654;9.070;2023-08-30T09:14:06;5.70;;;5.30;;
15198;SDS011;7700;48.654;9.070;2023-08-30T09:16:32;5.97;;;5.38;;
15198;SDS011;7700;48.654;9.070;2023-08-30T09:18:59;5.43;;;5.00;;
15198;SDS011;7700;48.654;9.070;2023-08-30T09:21:25;5.43;;;4.93;;
15198;SDS011;7700;48.654;9.070;2023-08-30T09:23:58;4.95;;;4.63;;
15198;SDS011;7700;48.654;9.070;2023-08-30T09:26:24;5.43;;;4.93;;
15198;SDS011;7700;48.654;9.070;2023-08-30T09:28:50;4.78;;;4.47;;
15198;SDS011;7700;48.654;9.070;2023-08-30T09:31:19;4.13;;;3.85;;
15198;SDS011;7700;48.654;9.070;2023-08-30T09:33:45;4.40;;;4.10;;
15198;SDS011;7700;48.654;9.070;2023-08-30T09:36:14;4.20;;;3.83;;
15198;SDS011;7700;48.654;9.070;2023-08-30T09:38:40;4.40;;;4.10;;
15198;SDS011;7700;48.654;9.070;2023-08-30T09:41:06;3.88;;;3.58;;
15198;SDS011;7700;48.654;9.070;2023-08-30T09:43:32;3.80;;;3.50;;
15198;SDS011;7700;48.654;9.070;2023-08-30T09:46:02;4.95;;;3.63;;
15198;SDS011;7700;48.654;9.070;2023-08-30T09:48:29;3.65;;;3.35;;
15198;SDS011;7700;48.654;9.070;2023-08-30T09:50:56;4.22;;;3.58;;
15198;SDS011;7700;48.654;9.070;2023-08-30T09:53:26;4.13;;;3.83;;
15198;SDS011;7700;48.654;9.070;2023-08-30T09:55:53;4.38;;;4.07;;
15198;SDS011;7700;48.654;9.070;2023-08-30T09:58:22;3.88;;;3.58;;
15198;SDS011;7700;48.654;9.070;2023-08-30T10:03:32;4.82;;;3.95;;
15198;SDS011;7700;48.654;9.070;2023-08-30T10:05:59;3.90;;;3.70;;
15198;SDS011;7700;48.654;9.070;2023-08-30T10:08:25;3.38;;;3.17;;
15198;SDS011;7700;48.654;9.070;2023-08-30T10:10:56;3.60;;;3.30;;
15198;SDS011;7700;48.654;9.070;2023-08-30T10:13:23;4.00;;;3.70;;
15198;SDS011;7700;48.654;9.070;2023-08-30T10:15:50;3.85;;;3.53;;
15198;SDS011;7700;48.654;9.070;2023-08-30T10:18:19;4.22;;;2.92;;
15198;SDS011;7700;48.654;9.070;2023-08-30T10:20:46;3.75;;;2.92;;
15198;SDS011;7700;48.654;9.070;2023-08-30T10:23:12;2.40;;;1.90;;
15198;SDS011;7700;48.654;9.070;2023-08-30T10:25:38;2.42;;;2.22;;
15198;SDS011;7700;48.654;9.070;2023-08-30T10:28:05;3.25;;;3.05;;
15198;SDS011;7700;48.654;9.070;2023-08-30T10:30:31;2.50;;;2.30;;
15198;SDS011;7700;48.654;9.070;2023-08-30T10:32:57;2.95;;;2.78;;
15198;SDS011;7700;48.654;9.070;2023-08-30T10:35:24;2.70;;;2.50;;
15198;SDS011;7700;48.654;9.070;2023-08-30T10:37:58;2.75;;;2.55;;
15198;SDS011;7700;48.654;9.070;2023-08-30T10:40:24;2.47;;;2.30;;
15198;SDS011;7700;48.654;9.070;2023-08-30T10:43:00;2.55;;;2.35;;
15198;SDS011;7700;48.654;9.070;2023-08-30T10:45:26;2.95;;;2.53;;
15198;SDS011;7700;48.654;9.070;2023-08-30T10:47:54;3.35;;;3.05;;
15198;SDS011;7700;48.654;9.070;2023-08-30T10:50:26;3.20;;;3.00;;
15198;SDS011;7700;48.654;9.070;2023-08-30T10:52:56;2.33;;;2.22;;
15198;SDS011;7700;48.654;9.070;2023-08-30T10:55:22;3.15;;;2.80;;
15198;SDS011;7700;48.654;9.070;2023-08-30T10:57:57;1.92;;;1.83;;
15198;SDS011;7700;48.654;9.070;2023-08-30T11:00:23;2.38;;;2.17;;
15198;SDS011;7700;48.654;9.070;2023-08-30T11:02:50;2.58;;;2.38;;
15198;SDS011;7700;48.654;9.070;2023-08-30T11:05:18;2.63;;;2.42;;
15198;SDS011;7700;48.654;9.070;2023-08-30T11:07:44;3.38;;;1.90;;
15198;SDS011;7700;48.654;9.070;2023-08-30T11:10:11;2.65;;;2.45;;
15198;SDS011;7700;48.654;9.070;2023-08-30T11:12:39;2.28;;;2.08;;
15198;SDS011;7700;48.654;9.070;2023-08-30T11:15:06;3.08;;;2.40;;
15198;SDS011;7700;48.654;9.070;2023-08-30T11:17:33;2.05;;;1.95;;
15198;SDS011;7700;48.654;9.070;2023-08-30T11:20:09;2.25;;;2.15;;
15198;SDS011;7700;48.654;9.070;2023-08-30T11:22:37;2.35;;;2.20;;
15198;SDS011;7700;48.654;9.070;2023-08-30T11:25:03;2.50;;;2.00;;
15198;SDS011;7700;48.654;9.070;2023-08-30T11:27:30;1.88;;;1.77;;
15198;SDS011;7700;48.654;9.070;2023-08-30T11:29:59;2.75;;;2.55;;
15198;SDS011;7700;48.654;9.070;2023-08-30T11:32:27;2.60;;;2.40;;
15198;SDS011;7700;48.654;9.070;2023-08-30T11:34:56;3.15;;;2.95;;
15198;SDS011;7700;48.654;9.070;2023-08-30T11:37:23;2.63;;;2.20;;
15198;SDS011;7700;48.654;9.070;2023-08-30T11:39:52;3.38;;;3.08;;
15198;SDS011;7700;48.654;9.070;2023-08-30T11:42:18;2.63;;;2.40;;
15198;SDS011;7700;48.654;9.070;2023-08-30T11:44:45;2.63;;;2.08;;
15198;SDS011;7700;48.654;9.070;2023-08-30T11:47:11;2.67;;;2.50;;
15198;SDS011;7700;48.654;9.070;2023-08-30T11:49:37;1.35;;;1.25;;
15198;SDS011;7700;48.654;9.070;2023-08-30T11:52:04;1.10;;;1.00;;
15198;SDS011;7700;48.654;9.070;2023-08-30T11:54:32;1.25;;;1.20;;
15198;SDS011;7700;48.654;9.070;2023-08-30T11:56:58;1.70;;;1.60;;
15198;SDS011;7700;48.654;9.070;2023-08-30T11:59:24;1.70;;;1.60;;
15198;SDS011;7700;48.654;9.070;2023-08-30T12:01:52;2.55;;;2.20;;
15198;SDS011;7700;48.654;9.070;2023-08-30T12:04:18;2.65;;;2.45;;
15198;SDS011;7700;48.654;9.070;2023-08-30T12:06:50;3.42;;;3.13;;
15198;SDS011;7700;48.654;9.070;2023-08-30T12:09:17;2.90;;;2.70;;
15198;SDS011;7700;48.654;9.070;2023-08-30T12:11:46;3.30;;;3.00;;
15198;SDS011;7700;48.654;9.070;2023-08-30T12:14:12;3.30;;;3.10;;
15198;SDS011;7700;48.654;9.070;2023-08-30T12:16:39;3.78;;;3.20;;
15198;SDS011;7700;48.654;9.070;2023-08-30T12:19:08;3.60;;;3.30;;
15198;SDS011;7700;48.654;9.070;2023-08-30T12:21:44;3.42;;;3.20;;
15198;SDS011;7700;48.654;9.070;2023-08-30T12:24:12;3.30;;;3.10;;
15198;SDS011;7700;48.654;9.070;2023-08-30T12:26:38;2.90;;;2.70;;
15198;SDS011;7700;48.654;9.070;2023-08-30T12:29:05;3.00;;;2.80;;
15198;SDS011;7700;48.654;9.070;2023-08-30T12:31:31;3.20;;;3.00;;
15198;SDS011;7700;48.654;9.070;2023-08-30T12:33:58;3.38;;;3.13;;
15198;SDS011;7700;48.654;9.070;2023-08-30T12:36:24;3.55;;;3.25;;
15198;SDS011;7700;48.654;9.070;2023-08-30T12:38:50;2.80;;;2.45;;
15198;SDS011;7700;48.654;9.070;2023-08-30T12:41:16;3.13;;;2.88;;
15198;SDS011;7700;48.654;9.070;2023-08-30T12:43:42;3.63;;;3.40;;
15198;SDS011;7700;48.654;9.070;2023-08-30T12:46:08;3.85;;;3.50;;
15198;SDS011;7700;48.654;9.070;2023-08-30T12:48:34;3.42;;;3.22;;
15198;SDS011;7700;48.654;9.070;2023-08-30T12:51:00;3.40;;;3.08;;
15198;SDS011;7700;48.654;9.070;2023-08-30T12:53:28;3.20;;;2.90;;
15198;SDS011;7700;48.654;9.070;2023-08-30T12:55:54;3.13;;;2.83;;
15198;SDS011;7700;48.654;9.070;2023-08-30T12:58:20;3.40;;;3.08;;
15198;SDS011;7700;48.654;9.070;2023-08-30T13:00:46;3.10;;;2.90;;
15198;SDS011;7700;48.654;9.070;2023-08-30T13:03:12;4.85;;;3.20;;
15198;SDS011;7700;48.654;9.070;2023-08-30T13:05:38;3.08;;;2.78;;
15198;SDS011;7700;48.654;9.070;2023-08-30T13:08:04;3.00;;;2.80;;
15198;SDS011;7700;48.654;9.070;2023-08-30T13:10:31;2.72;;;2.53;;
15198;SDS011;7700;48.654;9.070;2023-08-30T13:12:57;3.60;;;3.30;;
15198;SDS011;7700;48.654;9.070;2023-08-30T13:15:23;3.80;;;2.60;;
15198;SDS011;7700;48.654;9.070;2023-08-30T13:17:49;2.95;;;2.75;;
15198;SDS011;7700;48.654;9.070;2023-08-30T13:20:17;3.35;;;2.88;;
15198;SDS011;7700;48.654;9.070;2023-08-30T13:22:43;3.30;;;3.03;;
15198;SDS011;7700;48.654;9.070;2023-08-30T13:25:09;3.08;;;2.88;;
15198;SDS011;7700;48.654;9.070;2023-08-30T13:27:36;2.88;;;2.67;;
15198;SDS011;7700;48.654;9.070;2023-08-30T13:30:02;3.53;;;2.50;;
15198;SDS011;7700;48.654;9.070;2023-08-30T13:32:28;2.22;;;2.13;;
15198;SDS011;7700;48.654;9.070;2023-08-30T13:34:54;2.70;;;2.50;;
15198;SDS011;7700;48.654;9.070;2023-08-30T13:37:20;2.28;;;1.92;;
15198;SDS011;7700;48.654;9.070;2023-08-30T13:39:48;2.30;;;2.10;;
15198;SDS011;7700;48.654;9.070;2023-08-30T13:42:14;2.30;;;1.98;;
15198;SDS011;7700;48.654;9.070;2023-08-30T13:44:40;1.90;;;1.80;;
15198;SDS011;7700;48.654;9.070;2023-08-30T13:47:08;1.90;;;1.80;;
15198;SDS011;7700;48.654;9.070;2023-08-30T13:49:35;1.92;;;1.83;;
15198;SDS011;7700;48.654;9.070;2023-08-30T13:52:02;1.65;;;1.42;;
15198;SDS011;7700;48.654;9.070;2023-08-30T13:54:28;2.13;;;1.85;;
15198;SDS011;7700;48.654;9.070;2023-08-30T13:56:56;1.70;;;1.60;;
15198;SDS011;7700;48.654;9.070;2023-08-30T13:59:21;2.90;;;1.95;;
15198;SDS011;7700;48.654;9.070;2023-08-30T14:01:47;1.70;;;1.60;;
15198;SDS011;7700;48.654;9.070;2023-08-30T14:04:13;2.20;;;1.52;;
15198;SDS011;7700;48.654;9.070;2023-08-30T14:06:39;1.45;;;1.25;;
15198;SDS011;7700;48.654;9.070;2023-08-30T14:09:05;1.60;;;1.50;;
15198;SDS011;7700;48.654;9.070;2023-08-30T14:11:34;1.48;;;1.30;;
15198;SDS011;7700;48.654;9.070;2023-08-30T14:14:01;1.42;;;1.33;;
15198;SDS011;7700;48.654;9.070;2023-08-30T14:16:27;1.70;;;1.60;;
15198;SDS011;7700;48.654;9.070;2023-08-30T14:18:53;2.20;;;2.10;;
15198;SDS011;7700;48.654;9.070;2023-08-30T14:21:19;1.92;;;1.83;;
15198;SDS011;7700;48.654;9.070;2023-08-30T14:23:46;1.38;;;1.35;;
15198;SDS011;7700;48.654;9.070;2023-08-30T14:26:12;1.60;;;1.50;;
15198;SDS011;7700;48.654;9.070;2023-08-30T14:28:40;1.90;;;1.50;;
15198;SDS011;7700;48.654;9.070;2023-08-30T14:31:10;1.50;;;1.40;;
15198;SDS011;7700;48.654;9.070;2023-08-30T14:33:36;1.90;;;1.80;;
15198;SDS011;7700;48.654;9.070;2023-08-30T14:36:03;1.75;;;1.65;;
15198;SDS011;7700;48.654;9.070;2023-08-30T14:38:29;2.25;;;1.95;;
15198;SDS011;7700;48.654;9.070;2023-08-30T14:40:55;2.13;;;1.92;;
15198;SDS011;7700;48.654;9.070;2023-08-30T14:43:21;1.90;;;1.80;;
15198;SDS011;7700;48.654;9.070;2023-08-30T14:45:47;2.65;;;1.83;;
15198;SDS011;7700;48.654;9.070;2023-08-30T14:48:13;2.10;;;2.00;;
15198;SDS011;7700;48.654;9.070;2023-08-30T14:50:39;1.67;;;1.52;;
15198;SDS011;7700;48.654;9.070;2023-08-30T14:53:05;1.70;;;1.60;;
15198;SDS011;7700;48.654;9.070;2023-08-30T14:55:32;2.70;;;1.90;;
15198;SDS011;7700;48.654;9.070;2023-08-30T14:57:58;1.60;;;1.50;;